createdAt,value
2018-06-02T00:00:14.268Z,76.80
2018-06-02T00:02:40.568Z,76.80
2018-06-02T00:05:06.876Z,77.00
2018-06-02T00:07:33.943Z,77.40
2018-06-02T00:10:00.270Z,77.40
2018-06-02T00:12:26.588Z,77.30
2018-06-02T00:14:52.920Z,77.30
2018-06-02T00:17:19.222Z,77.00
2018-06-02T00:19:45.588Z,77.30
2018-06-02T00:24:44.873Z,76.60
2018-06-02T00:27:11.155Z,76.60
2018-06-02T00:29:37.496Z,76.60
2018-06-02T00:32:03.799Z,77.30
2018-06-02T00:34:30.134Z,76.30
2018-06-02T00:36:56.447Z,76.30
2018-06-02T00:39:22.747Z,76.10
2018-06-02T00:41:49.792Z,74.50
2018-06-02T00:44:16.831Z,75.00
2018-06-02T00:46:43.135Z,74.90
2018-06-02T00:49:09.464Z,75.50
2018-06-02T00:51:35.791Z,75.90
2018-06-02T00:54:02.086Z,76.20
2018-06-02T00:56:28.390Z,75.90
2018-06-02T00:58:55.501Z,76.40
2018-06-02T01:01:21.828Z,76.40
2018-06-02T01:03:48.156Z,76.20
2018-06-02T01:06:14.503Z,75.90
2018-06-02T01:08:40.807Z,77.00
2018-06-02T01:11:07.121Z,77.10
2018-06-02T01:13:33.421Z,77.40
2018-06-02T01:16:00.461Z,77.30
2018-06-02T01:18:27.505Z,76.30
2018-06-02T01:20:54.607Z,77.00
2018-06-02T01:23:21.644Z,77.20
2018-06-02T01:25:47.967Z,77.20
2018-06-02T01:28:14.319Z,77.40
2018-06-02T01:30:40.617Z,77.80
2018-06-02T01:33:06.956Z,77.50
2018-06-02T01:35:33.325Z,78.90
2018-06-02T01:37:59.648Z,78.80
2018-06-02T01:40:25.956Z,79.30
2018-06-02T01:42:52.262Z,78.10
2018-06-02T01:45:18.569Z,78.30
2018-06-02T01:47:44.920Z,78.60
2018-06-02T01:50:11.244Z,79.30
2018-06-02T01:52:37.554Z,79.00
2018-06-02T01:55:03.863Z,79.40
2018-06-02T01:57:30.186Z,79.10
2018-06-02T01:59:56.504Z,79.30
2018-06-02T02:02:22.807Z,79.60
2018-06-02T02:04:49.119Z,80.80
2018-06-02T02:07:15.428Z,79.90
2018-06-02T02:09:42.487Z,80.20
2018-06-02T02:12:08.777Z,80.20
2018-06-02T02:14:35.137Z,80.80
2018-06-02T02:17:01.424Z,80.30
2018-06-02T02:19:27.740Z,80.10
2018-06-02T02:21:54.035Z,80.70
2018-06-02T02:24:21.228Z,80.30
2018-06-02T02:26:47.552Z,79.90
2018-06-02T02:29:13.833Z,79.40
2018-06-02T02:31:40.144Z,79.50
2018-06-02T02:34:06.445Z,79.70
2018-06-02T02:36:32.776Z,79.80
2018-06-02T02:38:59.075Z,80.00
2018-06-02T02:41:25.389Z,80.00
2018-06-02T02:43:51.690Z,79.30
2018-06-02T02:46:18.763Z,79.50
2018-06-02T02:48:45.812Z,79.20
2018-06-02T02:51:12.098Z,79.10
2018-06-02T02:53:38.399Z,79.20
2018-06-02T02:56:04.748Z,80.00
2018-06-02T02:58:31.067Z,78.50
2018-06-02T03:00:57.399Z,79.20
2018-06-02T03:03:23.689Z,79.40
2018-06-02T03:05:50.040Z,80.50
2018-06-02T03:08:16.362Z,80.40
2018-06-02T03:10:42.657Z,80.40
2018-06-02T03:13:08.976Z,80.40
2018-06-02T03:15:36.035Z,81.00
2018-06-02T03:18:02.356Z,81.00
2018-06-02T03:20:28.671Z,80.20
2018-06-02T03:22:55.727Z,81.00
2018-06-02T03:25:22.758Z,80.40
2018-06-02T03:27:49.081Z,80.40
2018-06-02T03:30:15.349Z,80.30
2018-06-02T03:32:41.678Z,80.30
2018-06-02T03:35:07.975Z,80.30
2018-06-02T03:37:37.159Z,79.80
2018-06-02T03:40:03.517Z,81.20
2018-06-02T03:42:29.823Z,80.30
2018-06-02T03:44:56.135Z,79.60
2018-06-02T03:47:22.413Z,79.60
2018-06-02T03:49:48.738Z,79.30
2018-06-02T03:52:15.076Z,79.50
2018-06-02T03:54:41.384Z,80.10
2018-06-02T03:57:08.432Z,80.30
2018-06-02T03:59:35.463Z,80.20
2018-06-02T04:02:01.896Z,80.20
2018-06-02T04:04:28.937Z,80.30
2018-06-02T04:06:55.255Z,80.20
2018-06-02T04:09:21.598Z,79.70
2018-06-02T04:11:47.935Z,80.10
2018-06-02T04:14:14.225Z,80.50
2018-06-02T04:16:40.537Z,80.40
2018-06-02T04:19:06.849Z,80.10
2018-06-02T04:21:33.214Z,80.40
2018-06-02T04:23:59.508Z,80.20
2018-06-02T04:26:25.801Z,80.20
2018-06-02T04:28:52.113Z,80.10
2018-06-02T04:31:18.419Z,80.30
2018-06-02T04:33:44.733Z,81.00
2018-06-02T04:36:11.045Z,80.80
2018-06-02T04:38:37.323Z,81.20
2018-06-02T04:41:03.659Z,81.10
2018-06-02T04:43:29.969Z,80.40
2018-06-02T04:45:56.271Z,80.30
2018-06-02T04:48:22.583Z,80.30
2018-06-02T04:50:48.878Z,80.30
2018-06-02T04:53:15.188Z,80.40
2018-06-02T04:55:41.487Z,80.40
2018-06-02T04:58:07.814Z,79.80
2018-06-02T05:00:34.103Z,79.20
2018-06-02T05:03:01.166Z,79.60
2018-06-02T05:05:28.211Z,79.00
2018-06-02T05:07:55.277Z,79.40
2018-06-02T05:10:21.582Z,79.40
2018-06-02T05:12:48.736Z,78.10
2018-06-02T05:15:15.772Z,77.40
2018-06-02T05:17:42.873Z,78.10
2018-06-02T05:20:09.198Z,78.00
2018-06-02T05:22:35.495Z,77.50
2018-06-02T05:25:01.894Z,76.10
2018-06-02T05:27:28.198Z,75.40
2018-06-02T05:29:54.517Z,74.90
2018-06-02T05:32:20.812Z,74.30
2018-06-02T05:34:47.127Z,74.50
2018-06-02T05:37:14.165Z,73.00
2018-06-02T05:39:40.506Z,72.90
2018-06-02T05:42:07.560Z,72.30
2018-06-02T05:44:33.872Z,72.30
2018-06-02T05:47:00.969Z,73.20
2018-06-02T05:49:27.270Z,73.20
2018-06-02T05:51:53.616Z,74.00
2018-06-02T05:54:19.913Z,72.30
2018-06-02T05:56:46.972Z,72.70
2018-06-02T05:59:13.315Z,72.60
2018-06-02T06:01:39.632Z,72.30
2018-06-02T06:04:06.671Z,72.40
2018-06-02T06:06:32.996Z,72.40
2018-06-02T06:09:00.038Z,72.50
2018-06-02T06:11:26.383Z,72.50
2018-06-02T06:13:52.695Z,71.70
2018-06-02T06:16:19.047Z,72.50
2018-06-02T06:18:45.395Z,71.40
2018-06-02T06:21:11.723Z,70.90
2018-06-02T06:23:38.085Z,71.10
2018-06-02T06:26:04.469Z,72.80
2018-06-02T06:28:30.794Z,72.70
2018-06-02T06:30:57.137Z,71.20
2018-06-02T06:33:23.488Z,69.40
2018-06-02T06:35:49.813Z,69.00
2018-06-02T06:38:16.149Z,68.70
2018-06-02T06:40:42.489Z,67.90
2018-06-02T06:43:08.820Z,67.50
2018-06-02T06:45:35.125Z,68.00
2018-06-02T06:48:01.463Z,68.20
2018-06-02T06:50:27.797Z,67.90
2018-06-02T06:52:54.120Z,67.80
2018-06-02T06:55:20.437Z,67.70
2018-06-02T06:57:46.799Z,67.70
2018-06-02T07:00:13.131Z,66.20
2018-06-02T07:02:39.457Z,65.50
2018-06-02T07:05:05.805Z,65.30
2018-06-02T07:07:32.909Z,66.30
2018-06-02T07:09:59.258Z,66.10
2018-06-02T07:12:25.604Z,65.90
2018-06-02T07:14:51.950Z,67.10
2018-06-02T07:17:19.007Z,67.00
2018-06-02T07:19:46.131Z,66.70
2018-06-02T07:22:12.447Z,66.70
2018-06-02T07:24:38.825Z,66.70
2018-06-02T07:27:12.026Z,66.10
2018-06-02T07:29:38.390Z,66.00
2018-06-02T07:32:04.725Z,66.70
2018-06-02T07:34:31.056Z,66.00
2018-06-02T07:36:57.394Z,66.10
2018-06-02T07:39:23.762Z,67.30
2018-06-02T07:41:50.107Z,66.30
2018-06-02T07:44:16.455Z,66.90
2018-06-02T07:46:42.840Z,67.10
2018-06-02T07:49:09.913Z,66.20
2018-06-02T07:51:36.288Z,66.10
2018-06-02T07:54:12.644Z,64.50
2018-06-02T07:56:39.040Z,64.30
2018-06-02T07:59:05.405Z,62.30
2018-06-02T08:01:31.796Z,63.80
2018-06-02T08:03:58.104Z,63.80
2018-06-02T08:06:25.181Z,65.20
2018-06-02T08:08:51.543Z,65.20
2018-06-02T08:11:18.542Z,65.70
2018-06-02T08:13:44.897Z,66.10
2018-06-02T08:16:11.221Z,65.70
2018-06-02T08:18:37.819Z,65.80
2018-06-02T08:21:04.215Z,66.00
2018-06-02T08:23:30.569Z,65.50
2018-06-02T08:25:57.644Z,64.90
2018-06-02T08:28:24.007Z,64.40
2018-06-02T08:30:50.371Z,65.50
2018-06-02T08:33:16.729Z,64.20
2018-06-02T08:35:43.042Z,63.80
2018-06-02T08:38:10.104Z,64.10
2018-06-02T08:40:36.459Z,64.00
2018-06-02T08:43:02.845Z,64.00
2018-06-02T08:45:29.256Z,62.80
2018-06-02T08:47:55.661Z,63.50
2018-06-02T08:50:22.051Z,64.10
2018-06-02T08:52:48.374Z,63.80
2018-06-02T08:55:15.462Z,62.50
2018-06-02T08:57:41.783Z,62.50
2018-06-02T09:00:08.220Z,61.10
2018-06-02T09:02:34.532Z,61.10
2018-06-02T09:05:00.869Z,61.20
2018-06-02T09:07:27.236Z,61.80
2018-06-02T09:09:53.605Z,58.70
2018-06-02T09:12:20.663Z,59.00
2018-06-02T09:14:47.039Z,59.10
2018-06-02T09:17:13.430Z,58.20
2018-06-02T09:19:39.781Z,58.20
2018-06-02T09:22:06.181Z,57.30
2018-06-02T09:24:32.581Z,58.10
2018-06-02T09:26:58.919Z,58.60
2018-06-02T09:29:25.969Z,58.50
2018-06-02T09:31:53.084Z,58.80
2018-06-02T09:34:19.578Z,58.70
2018-06-02T09:36:45.900Z,59.10
2018-06-02T09:39:12.991Z,59.00
2018-06-02T09:41:39.340Z,59.00
2018-06-02T09:44:05.643Z,58.80
2018-06-02T09:46:31.992Z,60.90
2018-06-02T09:48:58.290Z,58.80
2018-06-02T09:51:24.610Z,57.60
2018-06-02T09:53:50.960Z,57.20
2018-06-02T09:56:17.312Z,57.70
2018-06-02T09:58:43.668Z,57.70
2018-06-02T10:01:10.735Z,57.40
2018-06-02T10:03:37.080Z,57.30
2018-06-02T10:06:03.444Z,57.20
2018-06-02T10:08:29.789Z,56.90
2018-06-02T10:10:56.122Z,58.00
2018-06-02T10:13:22.464Z,58.10
2018-06-02T10:15:49.519Z,56.60
2018-06-02T10:18:15.869Z,56.50
2018-06-02T10:20:42.199Z,56.20
2018-06-02T10:23:08.559Z,56.80
2018-06-02T10:25:34.882Z,56.50
2018-06-02T10:28:01.225Z,57.90
2018-06-02T10:30:27.612Z,58.10
2018-06-02T10:32:53.949Z,57.50
2018-06-02T10:35:20.288Z,57.20
2018-06-02T10:37:46.637Z,57.40
2018-06-02T10:40:13.015Z,57.30
2018-06-02T10:42:39.331Z,57.20
2018-06-02T10:45:06.391Z,57.50
2018-06-02T10:47:32.708Z,57.30
2018-06-02T10:49:59.037Z,57.80
2018-06-02T10:52:25.456Z,57.20
2018-06-02T10:54:51.792Z,56.60
2018-06-02T10:57:18.864Z,57.00
2018-06-02T10:59:45.187Z,56.90
2018-06-02T11:02:11.583Z,57.20
2018-06-02T11:04:37.856Z,57.70
2018-06-02T11:07:04.240Z,57.30
2018-06-02T11:09:31.313Z,57.60
2018-06-02T11:11:58.395Z,57.70
2018-06-02T11:14:24.724Z,57.60
2018-06-02T11:16:51.095Z,58.80
2018-06-02T11:19:17.427Z,58.90
2018-06-02T11:21:43.799Z,57.10
2018-06-02T11:24:10.103Z,57.70
2018-06-02T11:26:37.224Z,55.50
2018-06-02T11:29:03.604Z,55.30
2018-06-02T11:31:29.968Z,55.40
2018-06-02T11:33:56.284Z,54.70
2018-06-02T11:36:22.611Z,53.30
2018-06-02T11:38:48.985Z,54.40
2018-06-02T11:41:15.354Z,53.70
2018-06-02T11:43:41.748Z,54.40
2018-06-02T11:46:08.054Z,53.40
2018-06-02T11:48:34.385Z,52.90
2018-06-02T11:51:00.727Z,51.70
2018-06-02T11:53:27.045Z,53.10
2018-06-02T11:55:53.348Z,50.90
2018-06-02T11:58:19.697Z,50.40
2018-06-02T12:00:46.034Z,52.00
2018-06-02T12:03:12.355Z,50.90
2018-06-02T12:05:38.708Z,49.50
2018-06-02T12:08:05.061Z,50.20
2018-06-02T12:10:31.447Z,50.10
2018-06-02T12:15:30.937Z,49.00
2018-06-02T12:17:57.292Z,50.10
2018-06-02T12:20:23.671Z,51.90
2018-06-02T12:22:50.757Z,51.00
2018-06-02T12:25:17.088Z,50.80
2018-06-02T12:27:43.456Z,51.20
2018-06-02T12:30:09.769Z,50.80
2018-06-02T12:32:36.120Z,50.40
2018-06-02T12:35:02.695Z,50.90
2018-06-02T12:37:29.028Z,50.40
2018-06-02T12:39:55.430Z,51.20
2018-06-02T12:42:22.477Z,49.30
2018-06-02T12:44:48.840Z,49.30
2018-06-02T12:47:15.144Z,48.90
2018-06-02T12:49:41.487Z,50.10
2018-06-02T12:52:07.863Z,48.90
2018-06-02T12:54:34.181Z,49.10
2018-06-02T12:57:00.533Z,49.30
2018-06-02T12:59:26.899Z,49.50
2018-06-02T13:01:53.247Z,49.50
2018-06-02T13:04:19.622Z,49.50
2018-06-02T13:06:46.723Z,48.70
2018-06-02T13:09:13.052Z,48.60
2018-06-02T13:11:39.360Z,48.80
2018-06-02T13:14:05.702Z,49.40
2018-06-02T13:16:32.048Z,49.30
2018-06-02T13:18:58.378Z,48.50
2018-06-02T13:21:24.723Z,47.80
2018-06-02T13:23:51.034Z,47.80
2018-06-02T13:26:17.405Z,48.00
2018-06-02T13:28:43.686Z,46.90
2018-06-02T13:31:10.021Z,48.00
2018-06-02T13:33:36.328Z,47.60
2018-06-02T13:36:02.702Z,48.20
2018-06-02T13:38:29.031Z,46.50
2018-06-02T13:40:55.332Z,47.40
2018-06-02T13:43:21.668Z,47.30
2018-06-02T13:45:48.001Z,47.60
2018-06-02T13:48:14.312Z,47.60
2018-06-02T13:50:40.640Z,46.90
2018-06-02T13:53:06.994Z,46.60
2018-06-02T13:55:33.330Z,47.10
2018-06-02T13:57:59.661Z,47.20
2018-06-02T14:00:25.992Z,47.90
2018-06-02T14:02:52.307Z,48.20
2018-06-02T14:05:18.602Z,48.10
2018-06-02T14:07:45.678Z,46.90
2018-06-02T14:10:12.032Z,46.80
2018-06-02T14:12:38.390Z,45.40
2018-06-02T14:15:04.724Z,46.80
2018-06-02T14:17:31.051Z,47.00
2018-06-02T14:19:57.393Z,45.90
2018-06-02T14:22:24.511Z,45.30
2018-06-02T14:24:50.852Z,45.30
2018-06-02T14:27:17.203Z,44.80
2018-06-02T14:29:43.509Z,44.30
2018-06-02T14:32:10.636Z,45.70
2018-06-02T14:34:37.776Z,46.40
2018-06-02T14:37:04.071Z,46.20
2018-06-02T14:39:30.413Z,47.40
2018-06-02T14:41:56.709Z,45.90
2018-06-02T14:44:23.818Z,45.90
2018-06-02T14:46:50.152Z,45.80
2018-06-02T14:49:16.625Z,45.90
2018-06-02T14:51:43.690Z,45.70
2018-06-02T14:54:10.060Z,45.60
2018-06-02T14:56:36.413Z,45.20
2018-06-02T14:59:02.732Z,45.50
2018-06-02T15:01:29.133Z,45.10
2018-06-02T15:03:55.499Z,44.50
2018-06-02T15:06:21.811Z,45.00
2018-06-02T15:08:48.113Z,44.90
2018-06-02T15:11:14.758Z,44.10
2018-06-02T15:13:41.069Z,44.30
2018-06-02T15:16:07.435Z,45.40
2018-06-02T15:18:33.782Z,45.70
2018-06-02T15:21:00.158Z,44.40
2018-06-02T15:23:26.544Z,43.90
2018-06-02T15:25:52.852Z,43.60
2018-06-02T15:28:19.201Z,43.80
2018-06-02T15:30:45.516Z,44.60
2018-06-02T15:33:11.852Z,44.50
2018-06-02T15:35:38.151Z,44.60
2018-06-02T15:38:04.508Z,44.00
2018-06-02T15:40:30.821Z,44.20
2018-06-02T15:42:57.216Z,44.80
2018-06-02T15:45:23.524Z,45.30
2018-06-02T15:47:49.892Z,44.90
2018-06-02T15:50:16.202Z,45.80
2018-06-02T15:52:42.499Z,46.50
2018-06-02T15:55:09.577Z,45.50
2018-06-02T15:57:35.876Z,46.00
2018-06-02T16:00:02.999Z,46.70
2018-06-02T16:02:29.331Z,46.60
2018-06-02T16:04:55.663Z,46.70
2018-06-02T16:07:21.977Z,47.00
2018-06-02T16:09:48.357Z,46.90
2018-06-02T16:12:14.676Z,46.90
2018-06-02T16:14:41.769Z,47.20
2018-06-02T16:17:08.084Z,47.20
2018-06-02T16:19:34.386Z,48.40
2018-06-02T16:22:00.772Z,49.20
2018-06-02T16:24:27.752Z,47.30
2018-06-02T16:26:54.831Z,48.60
2018-06-02T18:02:27.798Z,49.60
2018-06-02T18:04:55.943Z,49.80
2018-06-02T18:07:24.068Z,50.00
2018-06-02T18:09:52.216Z,50.20
2018-06-02T18:12:20.340Z,49.90
2018-06-02T18:17:16.576Z,50.70
2018-06-02T18:19:45.631Z,51.00
2018-06-02T18:22:13.762Z,50.70
2018-06-02T18:24:41.899Z,50.70
2018-06-02T18:27:10.084Z,50.90
2018-06-02T18:29:38.248Z,51.30
2018-06-02T18:32:06.571Z,51.60
2018-06-02T18:34:34.690Z,51.30
2018-06-02T18:37:03.003Z,51.50
2018-06-02T18:39:31.162Z,52.10
2018-06-02T18:44:27.394Z,50.90
2018-06-02T18:46:55.639Z,50.40
2018-06-02T18:49:23.825Z,50.50
2018-06-02T18:51:52.045Z,51.00
2018-06-02T18:54:20.213Z,50.30
2018-06-02T18:56:48.335Z,50.70
2018-06-02T18:59:16.549Z,51.00
2018-06-02T19:01:44.706Z,51.60
2018-06-02T19:06:40.940Z,50.90
2018-06-02T19:09:09.188Z,51.70
2018-06-02T19:11:37.347Z,52.50
2018-06-02T19:14:05.574Z,53.10
2018-06-02T19:19:01.857Z,55.90
2018-06-02T19:21:29.996Z,56.20
2018-06-02T19:23:58.158Z,56.50
2018-06-02T19:28:54.408Z,56.90
2018-06-02T19:33:50.600Z,57.10
2018-06-02T19:36:18.754Z,57.40
2018-06-02T19:38:46.932Z,57.60
2018-06-02T19:41:15.117Z,57.60
2018-06-02T19:43:43.284Z,58.10
2018-06-02T19:46:11.483Z,58.30
2018-06-02T19:48:39.603Z,58.90
2018-06-02T19:51:07.798Z,59.40
2018-06-02T19:53:36.013Z,60.40
2018-06-02T19:56:04.240Z,60.50
2018-06-02T19:58:32.352Z,61.60
2018-06-02T20:01:00.537Z,61.50
2018-06-02T20:03:28.684Z,61.30
2018-06-02T20:05:56.864Z,62.40
2018-06-02T20:08:25.076Z,62.90
2018-06-02T20:10:53.420Z,62.70
2018-06-02T20:13:21.607Z,63.70
2018-06-02T20:18:17.820Z,64.60
2018-06-02T20:20:45.983Z,63.70
2018-06-02T20:23:14.157Z,63.20
2018-06-02T20:25:42.291Z,63.10
2018-06-02T20:28:10.615Z,63.30
2018-06-02T20:30:38.787Z,62.80
2018-06-02T20:33:07.034Z,62.80
2018-06-02T20:35:35.181Z,62.70
2018-06-02T20:38:03.337Z,63.10
2018-06-02T20:42:59.631Z,63.10
2018-06-02T20:45:27.985Z,63.70
2018-06-02T20:47:56.128Z,64.10
2018-06-02T20:50:24.287Z,64.60
2018-06-02T20:52:52.458Z,63.80
2018-06-02T20:55:20.635Z,63.20
2018-06-02T20:57:48.816Z,63.10
2018-06-02T21:00:17.003Z,62.70
2018-06-02T21:02:45.133Z,63.00
2018-06-02T21:07:41.363Z,64.60
2018-06-02T21:10:09.583Z,64.40
2018-06-02T21:15:06.004Z,64.60
2018-06-02T21:17:34.156Z,64.50
2018-06-02T21:20:02.405Z,64.40
2018-06-02T21:22:30.567Z,64.80
2018-06-02T21:24:58.743Z,64.50
2018-06-02T21:27:26.994Z,64.40
2018-06-02T21:29:55.196Z,64.50
2018-06-02T21:32:23.446Z,64.40
2018-06-02T21:34:51.658Z,64.50
2018-06-02T21:37:20.036Z,64.50
2018-06-02T21:39:48.144Z,64.50
2018-06-02T21:42:16.362Z,64.40
2018-06-02T21:44:44.551Z,65.40
2018-06-02T21:47:13.131Z,65.70
2018-06-02T21:49:42.167Z,65.70
2018-06-02T21:52:10.465Z,66.10
2018-06-02T21:54:43.183Z,66.80
2018-06-02T21:57:11.454Z,67.00
2018-06-02T21:59:40.086Z,67.00
2018-06-02T22:02:08.268Z,67.40
2018-06-02T22:07:06.010Z,68.00
2018-06-02T22:09:34.456Z,67.60
2018-06-02T22:12:02.719Z,67.60
2018-06-02T22:14:31.092Z,67.90
2018-06-02T22:16:59.486Z,67.70
2018-06-02T22:19:27.759Z,69.20
2018-06-02T22:21:56.008Z,69.80
2018-06-02T22:24:24.203Z,70.20
2018-06-02T22:26:52.366Z,70.40
2018-06-02T22:29:20.561Z,70.10
2018-06-02T22:31:48.705Z,69.90
2018-06-02T22:34:16.909Z,70.20
2018-06-02T22:36:45.186Z,70.10
2018-06-02T22:39:13.371Z,69.40
2018-06-02T22:41:41.488Z,69.00
2018-06-02T22:46:37.695Z,69.20
2018-06-02T22:49:05.909Z,69.70
2018-06-02T22:52:10.063Z,69.90
2018-06-02T22:54:38.346Z,69.70
2018-06-02T22:57:06.749Z,70.50
2018-06-02T22:59:34.964Z,70.10
2018-06-02T23:02:03.260Z,70.60
2018-06-02T23:04:31.531Z,71.40
2018-06-02T23:06:59.935Z,72.10
2018-06-02T23:09:28.101Z,72.60
2018-06-02T23:11:56.271Z,72.50
2018-06-02T23:14:24.376Z,72.60
2018-06-02T23:16:52.581Z,72.40
2018-06-02T23:19:20.743Z,72.30
2018-06-02T23:24:16.943Z,72.50
2018-06-02T23:26:45.077Z,72.50
2018-06-02T23:29:13.324Z,72.50
2018-06-02T23:31:41.499Z,72.50
2018-06-02T23:34:10.486Z,72.50
2018-06-02T23:36:38.602Z,72.40
2018-06-02T23:39:06.862Z,72.30
2018-06-02T23:41:35.031Z,72.90
2018-06-02T23:44:03.163Z,73.50
2018-06-02T23:46:31.251Z,73.00
2018-06-02T23:48:59.384Z,74.10
2018-06-02T23:51:27.552Z,73.10
2018-06-02T23:53:55.718Z,73.70
2018-06-02T23:56:23.793Z,74.30
2018-06-02T23:58:51.925Z,74.80
